Huvudsida
METAR-TAF:

METAR-TAF

Flygplatser :

Acapulco, Mexiko

latitud: 16-46N, longitud: 099-45W, höjd: 5 m

Aktuellt väderrapport

Denna rapport gjordes för 1 timme och 18 minuter sedan, klockan 10:46 UTC
Vind 2 kt från nord
Temperatur 22°C
Fuktighet 88%
Tryck 1015 hPa
Sikt: 9.7 km
Klar himmel

METAR: MMAA 261046Z 35002KT 6SM SKC 22/20 A2997 RMK HZY CI

Tid: 06:04 (12:04 UTC)

Väderprognos

Denna rapport gjordes för 45 minuter sedan, klockan 11:19 UTC
Prognos gäller från 26 kl. 12 UTC till 27 kl. 18 UTC
Vind kt från nord
Sikt: 9.7 km
Klar himmel
torrdis
Från 26 kl. 2000 UTC
Vind 10 kt från sydväst
Sikt: 9.7 km
Klar himmel
torrdis
Från 27 kl. 0400 UTC
Vind 5 kt från väst/sydväst
Sikt: 9.7 km
Klar himmel
torrdis
Från 27 kl. 1800 UTC
Vind 10 kt från väst/sydväst
Sikt: 9.7 km
Spridda moln på en höjd av 2000 ft
torrdis

TAF: MMAA 261119Z 2612/2718 00000KT 6SM HZ SKC TX30/2619Z TN22/2612Z FM262000 23010KT 6SM HZ SKC FM270400 24005KT 6SM HZ SKC FM271800 24010KT 6SM HZ SCT020

Aktuella väderrapporter och prognoser från 4000 flygplatser (METAR- och TAF-rapporter).

De tillgängliga stationerna syns som gula och röda prickar på kartan.

För musen över prickarna för att se namnen på stationerna.

Klicka sedan för att få väderrapporter och prognoser.

För att ändra kartan: Klicka på de gröna knapparna med ett svart kors på för att zooma in; den gröna knappen med ett streck på för att zooma ut; eller på de gröna pilarna för angränsande kartor.


METAR-TAF: